Ironhills, Iowa
Current Conditions -  °F | °C
As of 7:46 PM on Monday 22 Dec 2014 (Local Time) from KDBQ Reporting Station
Haze Haze  
Wind Chill: 28°   Ceiling: 200
Heat Index: 36°   Visibility: 1mi
Dew Point: 36°   Wind: 10mph
Humidity: 100%   Direction: 110°ESE
Pressure: 29.55"   Gusts: NA
Location:  42.12°N, 90.7234°W
Report Text: KDBQ 230146Z 11009KT 1SM R36/4500FT BR VV002 02/02 A2955 RMK AO2 T00220022
Loading
Personal Weather Stations






























Interactive Weather Map New forecast layout! Learn more

10-Day Weather Forecast

Advertisements
Track Severe Weather on mobile